Time;durP1;ratioP1;P1;durP2;ratioP2;P2;SDS_P1;SDS_P2;PMS_P1;PMS_P2;Temp;Humidity;BMP_temperature;BMP_pressure;BME280_temperature;BME280_humidity;BME280_pressure;Samples;Min_cycle;Max_cycle;Signal;HPM_P1;HPM_P2
2022/08/12 00:45:10;;;;;;;2.83;2.60;;;;;;;15.46;100.00;96464.84;5070180;27;102567;-62
2022/08/12 00:47:40;;;;;;;2.70;2.50;;;;;;;15.44;100.00;96467.03;5074591;27;101886;-61
2022/08/12 00:50:16;;;;;;;3.07;2.77;;;;;;;15.29;100.00;96459.03;5070071;27;104254;-61
2022/08/12 00:52:45;;;;;;;2.60;2.40;;;;;;;15.10;100.00;96458.09;5070925;27;101781;-61
2022/08/12 00:55:12;;;;;;;3.47;2.60;;;;;;;15.34;100.00;96465.22;5070490;27;102146;-62
2022/08/12 00:57:46;;;;;;;2.37;2.27;;;;;;;15.33;100.00;96457.44;5073423;27;102455;-61
2022/08/12 01:00:17;;;;;;;2.47;2.27;;;;;;;15.22;100.00;96455.88;5074472;27;101724;-61
2022/08/12 01:02:50;;;;;;;2.90;2.70;;;;;;;15.32;100.00;96456.59;5072905;27;105198;-61
2022/08/12 01:13:39;;;;;;;2.90;2.47;;;;;;;15.24;100.00;96464.44;5074252;27;101741;-61
2022/08/12 01:16:09;;;;;;;2.37;2.27;;;;;;;14.64;100.00;96460.19;5074119;27;103888;-61
2022/08/12 01:18:42;;;;;;;2.90;2.70;;;;;;;14.86;100.00;96467.84;5073243;27;102664;-61
2022/08/12 01:21:15;;;;;;;2.70;2.50;;;;;;;14.83;100.00;96460.38;5072626;27;101928;-61
2022/08/12 01:23:59;;;;;;;3.13;2.90;;;;;;;14.85;100.00;96466.25;5073738;27;104211;-61
2022/08/12 01:26:31;;;;;;;3.03;2.73;;;;;;;14.77;100.00;96469.50;5073308;27;103098;-61
2022/08/12 01:29:00;;;;;;;3.20;2.50;;;;;;;14.39;100.00;96467.50;5073911;27;101810;-61
2022/08/12 01:31:30;;;;;;;2.77;2.57;;;;;;;14.63;100.00;96468.50;5076543;27;102255;-61
2022/08/12 01:34:04;;;;;;;2.97;2.77;;;;;;;14.37;100.00;96469.63;5073897;27;101840;-61
2022/08/12 01:36:37;;;;;;;2.90;2.70;;;;;;;14.22;100.00;96464.34;5074002;27;102520;-61
2022/08/12 01:39:05;;;;;;;3.10;2.87;;;;;;;14.16;100.00;96465.38;5072563;27;103086;-62
2022/08/12 01:41:39;;;;;;;3.10;2.90;;;;;;;14.12;100.00;96469.69;5072409;27;101736;-61
2022/08/12 01:44:08;;;;;;;2.77;2.57;;;;;;;14.16;100.00;96462.69;5072365;27;105256;-62
2022/08/12 01:46:44;;;;;;;4.40;3.20;;;;;;;14.31;100.00;96468.88;5071621;27;105994;-62
2022/08/12 01:49:38;;;;;;;3.50;3.20;;;;;;;14.27;100.00;96462.44;5072148;27;101802;-61
2022/08/12 01:52:07;;;;;;;3.40;3.10;;;;;;;14.36;100.00;96460.00;5071890;27;105652;-62
2022/08/12 01:54:39;;;;;;;3.73;3.33;;;;;;;14.30;100.00;96467.25;5076145;27;102991;-61
2022/08/12 01:57:13;;;;;;;3.40;3.10;;;;;;;13.99;100.00;96464.88;5073710;27;102252;-61
2022/08/12 01:59:49;;;;;;;3.27;3.07;;;;;;;13.92;100.00;96457.16;5071352;27;106029;-61
2022/08/12 02:02:19;;;;;;;4.93;2.93;;;;;;;14.14;100.00;96454.16;5073478;27;101783;-61
2022/08/12 02:14:06;;;;;;;3.67;3.37;;;;;;;14.22;100.00;96461.69;5073415;27;102818;-61
2022/08/12 02:16:55;;;;;;;3.20;2.97;;;;;;;13.83;100.00;96458.75;5072779;27;102569;-61
2022/08/12 02:19:42;;;;;;;3.67;3.30;;;;;;;13.87;100.00;96453.66;5076829;27;102124;-61
2022/08/12 02:22:22;;;;;;;3.07;2.83;;;;;;;13.63;100.00;96442.72;5072382;27;102547;-61
2022/08/12 02:24:51;;;;;;;3.30;3.10;;;;;;;13.72;100.00;96449.13;5073054;27;101719;-61
2022/08/12 02:27:19;;;;;;;3.17;2.97;;;;;;;13.77;100.00;96451.00;5073304;27;102651;-61
2022/08/12 02:29:48;;;;;;;2.80;2.60;;;;;;;13.81;100.00;96444.84;5070983;27;104437;-61
2022/08/12 02:32:16;;;;;;;3.40;3.20;;;;;;;13.84;100.00;96448.88;5072674;27;101833;-61
2022/08/12 02:34:44;;;;;;;4.50;3.30;;;;;;;13.68;100.00;96439.25;5072707;27;101746;-61
2022/08/12 02:37:15;;;;;;;3.23;3.03;;;;;;;13.72;100.00;96440.31;5070906;27;104451;-61
2022/08/12 02:39:48;;;;;;;3.20;2.83;;;;;;;13.79;100.00;96438.97;5072355;27;101930;-61
2022/08/12 02:42:19;;;;;;;3.77;3.37;;;;;;;13.79;100.00;96440.84;5074247;27;106699;-61
2022/08/12 02:44:51;;;;;;;3.10;2.90;;;;;;;13.72;100.00;96435.78;5071377;27;102017;-61
2022/08/12 02:47:22;;;;;;;3.07;2.87;;;;;;;13.54;100.00;96427.50;5072490;27;102506;-61
2022/08/12 02:49:54;;;;;;;3.50;3.20;;;;;;;13.42;100.00;96432.31;5070746;27;104479;-61
2022/08/12 02:52:23;;;;;;;2.73;2.50;;;;;;;13.32;100.00;96433.09;5072881;27;102104;-61
2022/08/12 02:54:58;;;;;;;3.40;3.20;;;;;;;13.09;100.00;96436.25;5072392;27;102890;-61
2022/08/12 02:57:26;;;;;;;3.53;3.23;;;;;;;13.00;100.00;96437.06;5072158;27;102594;-61
2022/08/12 02:59:56;;;;;;;3.77;3.47;;;;;;;12.91;100.00;96438.63;5072123;27;101836;-61
2022/08/12 03:02:28;;;;;;;3.60;3.30;;;;;;;12.66;100.00;96436.69;5070957;27;103944;-61
2022/08/12 03:04:58;;;;;;;3.90;3.50;;;;;;;12.88;100.00;96429.28;5075262;27;102614;-61
2022/08/12 03:07:31;;;;;;;4.07;3.77;;;;;;;13.06;100.00;96428.78;5070906;27;103650;-61
2022/08/12 03:10:07;;;;;;;3.80;3.50;;;;;;;13.11;100.00;96430.66;5071617;27;104121;-61
2022/08/12 03:12:37;;;;;;;4.27;3.40;;;;;;;13.18;100.00;96436.53;5070675;27;102334;-61
2022/08/12 03:15:09;;;;;;;3.50;3.20;;;;;;;12.90;100.00;96440.47;5070781;27;105704;-61
2022/08/12 03:17:47;;;;;;;3.53;3.27;;;;;;;13.02;100.00;96441.06;5071663;27;102659;-61
2022/08/12 03:20:17;;;;;;;4.10;3.70;;;;;;;13.00;100.00;96432.53;5070828;27;101836;-61
2022/08/12 03:22:45;;;;;;;3.40;3.20;;;;;;;12.92;100.00;96434.88;5072384;27;102376;-61
2022/08/12 03:25:16;;;;;;;3.57;3.33;;;;;;;12.92;100.00;96432.22;5069882;27;103738;-61
2022/08/12 03:27:48;;;;;;;6.90;3.60;;;;;;;12.83;100.00;96431.09;5075636;27;101750;-61
2022/08/12 03:30:19;;;;;;;3.97;3.67;;;;;;;12.87;100.00;96440.97;5070979;27;104144;-61
2022/08/12 03:32:48;;;;;;;3.93;3.63;;;;;;;12.65;100.00;96445.72;5072119;27;101724;-61
2022/08/12 03:35:23;;;;;;;3.60;3.40;;;;;;;12.79;100.00;96449.50;5070508;27;105161;-61
2022/08/12 03:37:51;;;;;;;4.70;4.30;;;;;;;12.46;100.00;96457.13;5071472;27;102578;-61
2022/08/12 04:02:25;;;;;;;3.63;3.37;;;;;;;12.38;100.00;96452.28;5051154;27;101706;-61
2022/08/12 04:04:53;;;;;;;4.00;3.60;;;;;;;12.46;100.00;96457.13;5051045;27;102257;-61
2022/08/12 04:07:20;;;;;;;3.60;3.30;;;;;;;12.51;100.00;96460.63;5048959;27;104461;-61
2022/08/12 04:09:47;;;;;;;4.80;3.80;;;;;;;12.40;100.00;96453.63;5049617;27;102034;-61
2022/08/12 04:15:01;;;;;;;4.30;3.90;;;;;;;12.32;100.00;96453.31;5050787;27;101790;-62
2022/08/12 04:17:31;;;;;;;4.03;3.73;;;;;;;12.19;100.00;96446.59;5050842;27;102893;-61
2022/08/12 04:19:59;;;;;;;4.43;4.00;;;;;;;12.06;100.00;96446.25;5050372;27;102591;-62
2022/08/12 04:22:29;;;;;;;4.33;3.60;;;;;;;12.10;100.00;96436.69;5050708;27;101910;-61
2022/08/12 04:24:59;;;;;;;4.10;3.80;;;;;;;12.10;100.00;96440.13;5050254;27;103482;-61
2022/08/12 04:27:27;;;;;;;4.53;3.80;;;;;;;12.20;100.00;96442.03;5050232;27;103178;-61
2022/08/12 04:29:54;;;;;;;4.43;4.03;;;;;;;12.01;100.00;96448.88;5050818;27;101957;-61
2022/08/12 04:32:21;;;;;;;4.30;3.90;;;;;;;12.06;100.00;96446.25;5050197;27;102230;-61
2022/08/12 04:34:50;;;;;;;4.30;3.90;;;;;;;12.25;100.00;96444.75;5051736;27;105465;-61
2022/08/12 04:37:18;;;;;;;4.50;4.20;;;;;;;12.45;100.00;96450.19;5050729;27;102516;-61
2022/08/12 04:39:46;;;;;;;4.80;4.43;;;;;;;12.41;100.00;96449.09;5055859;27;103964;-62
2022/08/12 04:42:15;;;;;;;5.00;4.60;;;;;;;12.65;100.00;96444.94;5070569;27;102048;-61
2022/08/12 04:44:43;;;;;;;4.73;4.37;;;;;;;12.86;100.00;96441.28;5070841;27;102593;-61
2022/08/12 04:47:12;;;;;;;5.03;4.57;;;;;;;13.01;100.00;96452.00;5068799;27;105593;-61
2022/08/12 04:49:41;;;;;;;4.53;4.13;;;;;;;13.05;100.00;96451.22;5069246;27;102180;-61
2022/08/12 04:52:09;;;;;;;5.27;4.60;;;;;;;13.06;100.00;96457.34;5069298;27;105627;-61
2022/08/12 04:54:37;;;;;;;5.03;4.63;;;;;;;13.23;100.00;96452.56;5068724;27;105269;-61
2022/08/12 04:57:08;;;;;;;5.60;5.00;;;;;;;13.35;100.00;96445.13;5072681;27;102030;-61
2022/08/12 04:59:36;;;;;;;7.07;4.97;;;;;;;13.35;100.00;96439.78;5070009;27;102639;-61
2022/08/12 05:02:03;;;;;;;5.63;5.10;;;;;;;13.32;100.00;96451.00;5070577;27;101935;-62
2022/08/12 05:04:31;;;;;;;5.93;5.30;;;;;;;13.32;100.00;96453.66;5068958;27;105656;-61
2022/08/12 05:06:58;;;;;;;6.30;5.40;;;;;;;13.48;100.00;96449.94;5068495;27;105458;-61
2022/08/12 05:09:26;;;;;;;9.10;6.00;;;;;;;13.67;100.00;96456.34;5070745;27;101860;-61
2022/08/12 05:11:54;;;;;;;5.13;4.73;;;;;;;13.68;100.00;96456.06;5070489;27;102313;-61
2022/08/12 05:14:21;;;;;;;7.37;5.40;;;;;;;13.80;100.00;96455.81;5069660;27;102623;-61
2022/08/12 05:16:48;;;;;;;5.90;5.20;;;;;;;13.95;100.00;96463.81;5069170;27;101893;-61
2022/08/12 05:19:15;;;;;;;6.67;5.50;;;;;;;14.13;100.00;96463.25;5071817;27;105019;-61
2022/08/12 05:21:45;;;;;;;5.40;4.60;;;;;;;14.32;100.00;96469.66;5070435;27;101900;-62
2022/08/12 05:24:12;;;;;;;5.50;5.00;;;;;;;14.43;100.00;96464.00;5070199;27;102296;-61
2022/08/12 05:26:41;;;;;;;5.90;4.90;;;;;;;14.65;100.00;96471.69;5069832;27;102700;-61
2022/08/12 05:29:11;;;;;;;6.10;5.20;;;;;;;14.80;100.00;96468.94;5070052;27;101903;-62
2022/08/12 05:31:39;;;;;;;4.90;4.40;;;;;;;15.01;100.00;96478.50;5070497;27;102811;-61
2022/08/12 05:34:06;;;;;;;6.30;4.73;;;;;;;15.12;100.00;96466.66;5069483;27;102631;-62
2022/08/12 05:36:33;;;;;;;6.07;4.90;;;;;;;15.19;100.00;96475.19;5070582;27;101868;-62
2022/08/12 05:39:00;;;;;;;6.70;4.70;;;;;;;15.28;100.00;96477.00;5069701;27;102790;-62
2022/08/12 05:41:29;;;;;;;7.17;5.20;;;;;;;15.41;100.00;96480.97;5073034;27;101976;-61
2022/08/12 05:44:00;;;;;;;5.67;5.17;;;;;;;15.54;100.00;96475.00;5071796;27;102319;-62
2022/08/12 05:46:28;;;;;;;5.50;4.87;;;;;;;15.62;100.00;96475.19;5071382;27;106625;-62
2022/08/12 05:48:57;;;;;;;5.80;5.23;;;;;;;15.70;100.00;96471.91;5073515;27;101879;-62
2022/08/12 05:51:26;;;;;;;6.00;5.10;;;;;;;15.75;100.00;96476.44;5073667;27;102234;-62
2022/08/12 05:53:54;;;;;;;6.47;5.47;;;;;;;15.86;100.00;96477.97;5072783;27;102689;-61
2022/08/12 05:56:24;;;;;;;6.47;4.93;;;;;;;16.04;100.00;96485.31;5073283;27;101956;-61
2022/08/12 05:58:53;;;;;;;4.83;4.43;;;;;;;16.07;100.00;96474.81;5071787;27;105140;-61
2022/08/12 06:01:24;;;;;;;6.87;5.07;;;;;;;16.25;100.00;96476.00;5074811;27;104422;-62
2022/08/12 06:03:51;;;;;;;6.73;5.20;;;;;;;16.30;100.00;96478.63;5071994;27;103771;-62
2022/08/12 06:06:19;;;;;;;5.60;4.73;;;;;;;16.43;100.00;96478.78;5071231;27;105848;-62
2022/08/12 06:08:52;;;;;;;5.50;4.87;;;;;;;16.45;100.00;96478.50;5071845;27;102102;-61
2022/08/12 06:11:20;;;;;;;4.93;4.53;;;;;;;16.68;100.00;96485.75;5071537;27;104718;-61
2022/08/12 06:13:47;;;;;;;8.37;4.50;;;;;;;16.74;100.00;96484.63;5071183;27;105546;-61
2022/08/12 06:16:17;;;;;;;5.00;4.27;;;;;;;16.79;100.00;96477.28;5073305;27;101667;-61
2022/08/12 06:18:47;;;;;;;5.63;4.50;;;;;;;16.89;100.00;96479.06;5073083;27;102388;-61
2022/08/12 06:21:17;;;;;;;4.30;4.00;;;;;;;16.90;100.00;96486.03;5072669;27;102622;-61
2022/08/12 06:23:45;;;;;;;5.90;4.20;;;;;;;17.01;100.00;96480.22;5074771;27;101859;-62
2022/08/12 06:26:15;;;;;;;6.40;4.30;;;;;;;17.12;100.00;96480.91;5072238;27;102759;-62
2022/08/12 06:28:43;;;;;;;4.53;4.13;;;;;;;17.27;100.00;96478.03;5072894;27;101880;-62
2022/08/12 06:31:14;;;;;;;4.40;4.07;;;;;;;17.42;100.00;96477.81;5073137;27;102375;-62
2022/08/12 06:33:43;;;;;;;5.87;4.20;;;;;;;17.49;100.00;96475.59;5072462;27;102881;-61
2022/08/12 06:36:12;;;;;;;5.63;4.60;;;;;;;17.48;100.00;96482.84;5071338;27;101899;-61
2022/08/12 06:38:41;;;;;;;4.13;3.80;;;;;;;17.81;100.00;96483.69;5072626;27;102205;-62
2022/08/12 06:43:54;;;;;;;3.97;3.67;;;;;;;17.56;100.00;96486.78;5073019;27;101823;-62
2022/08/12 06:46:22;;;;;;;4.10;3.70;;;;;;;17.94;100.00;96488.31;5075064;27;104523;-62
2022/08/12 06:48:55;;;;;;;3.93;3.57;;;;;;;18.24;100.00;96485.91;5071289;27;101907;-62
2022/08/12 06:51:24;;;;;;;4.07;3.40;;;;;;;18.47;100.00;96486.91;5072810;27;102515;-62
2022/08/12 06:53:52;;;;;;;3.70;3.40;;;;;;;18.62;100.00;96479.31;5070325;27;105977;-62
2022/08/12 06:56:19;;;;;;;7.37;3.97;;;;;;;18.63;100.00;96486.31;5072642;27;101737;-62
2022/08/12 06:58:46;;;;;;;4.03;3.50;;;;;;;18.76;100.00;96482.03;5072334;27;102806;-62
2022/08/12 07:01:14;;;;;;;6.67;3.93;;;;;;;18.96;100.00;96485.09;5070457;27;105852;-62
2022/08/12 07:03:41;;;;;;;3.47;3.23;;;;;;;19.03;100.00;96485.50;5072587;27;101992;-62
2022/08/12 07:06:10;;;;;;;3.07;2.80;;;;;;;19.21;100.00;96487.31;5071034;27;103576;-62
2022/08/12 07:08:40;;;;;;;4.73;2.87;;;;;;;19.23;100.00;96479.72;5075028;27;102654;-62
2022/08/12 07:11:09;;;;;;;2.63;2.50;;;;;;;19.44;100.00;96475.47;5070521;27;105487;-62
2022/08/12 07:13:41;;;;;;;3.90;3.17;;;;;;;19.65;100.00;96476.63;5071666;27;103134;-62
2022/08/12 07:16:10;;;;;;;3.20;2.90;;;;;;;19.75;100.00;96475.56;5072425;27;101707;-62
2022/08/12 07:18:38;;;;;;;3.53;2.73;;;;;;;19.29;100.00;96475.81;5070829;27;103951;-62
2022/08/12 07:21:06;;;;;;;3.37;2.70;;;;;;;19.60;100.00;96481.31;5071431;27;102567;-62
2022/08/12 07:23:36;;;;;;;3.10;2.80;;;;;;;20.07;100.00;96473.47;5070626;27;101979;-62
2022/08/12 07:26:06;;;;;;;5.00;2.90;;;;;;;20.00;100.00;96478.44;5072389;27;102853;-62
2022/08/12 07:28:38;;;;;;;4.80;2.97;;;;;;;20.34;100.00;96467.09;5069957;27;105492;-62
2022/08/12 07:31:07;;;;;;;4.10;2.77;;;;;;;20.50;100.00;96474.47;5074356;27;102015;-62
2022/08/12 07:33:37;;;;;;;3.03;2.77;;;;;;;20.46;100.00;96478.13;5071063;27;102744;-62
2022/08/12 07:36:06;;;;;;;3.47;2.60;;;;;;;20.68;100.00;96480.78;5072209;27;101912;-62
2022/08/12 07:38:35;;;;;;;4.70;2.77;;;;;;;20.53;100.00;96475.78;5070256;27;104063;-62
2022/08/12 07:41:09;;;;;;;4.00;2.60;;;;;;;20.68;100.00;96486.19;5070543;27;103312;-62
2022/08/12 07:43:38;;;;;;;2.60;2.40;;;;;;;20.93;100.00;96485.53;5070530;27;101829;-62
2022/08/12 07:46:06;;;;;;;2.83;2.50;;;;;;;21.08;100.00;96491.28;5071783;27;102478;-62
2022/08/12 07:48:38;;;;;;;6.90;2.90;;;;;;;21.28;100.00;96490.72;5069682;27;105531;-62
2022/08/12 07:51:06;;;;;;;3.20;2.50;;;;;;;21.51;100.00;96488.66;5073814;27;101892;-62
2022/08/12 07:53:33;;;;;;;2.97;2.40;;;;;;;21.74;97.58;96476.63;5070945;27;102757;-62
2022/08/12 07:56:01;;;;;;;2.57;2.37;;;;;;;21.87;92.73;96478.38;5071275;27;101941;-62
2022/08/12 07:58:31;;;;;;;2.40;2.20;;;;;;;22.07;92.15;96481.22;5070178;27;106037;-62
2022/08/12 08:01:01;;;;;;;2.00;1.90;;;;;;;22.24;93.09;96473.03;5071041;27;103037;-62
2022/08/12 08:03:28;;;;;;;3.53;2.00;;;;;;;22.28;88.61;96467.81;5071362;27;101826;-62
2022/08/12 08:05:57;;;;;;;2.70;1.80;;;;;;;22.45;87.56;96473.22;5070762;27;102290;-62
2022/08/12 08:08:26;;;;;;;2.47;2.27;;;;;;;22.62;81.26;96473.16;5070383;27;102807;-62
2022/08/12 08:12:52;;;;;;;2.63;2.00;;;;;;;22.82;78.30;96473.22;5071348;27;101808;-62
2022/08/12 08:13:45;;;;;;;2.37;2.00;;;;;;;22.85;90.29;96471.78;5073796;27;102918;-62
2022/08/12 08:16:14;;;;;;;1.97;1.87;;;;;;;22.60;79.25;96469.94;5071137;27;101989;-62
2022/08/12 08:18:41;;;;;;;4.17;2.37;;;;;;;22.86;81.44;96467.94;5069919;27;105606;-62
2022/08/12 08:21:09;;;;;;;2.90;1.80;;;;;;;22.87;81.19;96464.09;5070751;27;102567;-62
2022/08/12 08:26:23;;;;;;;3.43;2.10;;;;;;;22.79;79.50;96476.59;5071108;27;102435;-62
2022/08/12 08:28:52;;;;;;;2.63;2.07;;;;;;;22.99;73.20;96477.78;5070392;27;102565;-62
2022/08/12 08:31:20;;;;;;;2.10;2.00;;;;;;;23.07;75.75;96485.06;5069577;27;101935;-62
2022/08/12 08:33:47;;;;;;;2.03;1.90;;;;;;;23.03;74.33;96482.22;5071055;27;102277;-62
2022/08/12 08:36:14;;;;;;;2.43;2.00;;;;;;;23.09;75.69;96491.75;5071992;27;105690;-62
2022/08/12 08:38:44;;;;;;;2.47;2.20;;;;;;;23.56;69.89;96485.13;5069506;27;105395;-62
2022/08/12 08:43:59;;;;;;;2.90;2.23;;;;;;;23.84;69.13;96477.25;5071107;27;101712;-62
2022/08/12 08:46:26;;;;;;;2.20;2.10;;;;;;;23.36;65.35;96479.66;5070873;27;102303;-62
2022/08/12 08:48:54;;;;;;;2.30;2.00;;;;;;;23.34;77.96;96479.22;5070093;27;102844;-62
2022/08/12 08:51:22;;;;;;;2.17;1.93;;;;;;;23.45;69.18;96475.00;5070712;27;101962;-62
2022/08/12 08:53:49;;;;;;;2.00;1.80;;;;;;;23.67;70.25;96472.75;5069268;27;103794;-62
2022/08/12 08:56:17;;;;;;;1.93;1.80;;;;;;;23.62;73.01;96472.97;5068805;27;103860;-62
2022/08/12 08:58:44;;;;;;;2.20;2.00;;;;;;;23.24;71.48;96466.81;5074434;27;102061;-62
2022/08/12 09:01:16;;;;;;;2.73;1.80;;;;;;;24.06;68.07;96479.63;5070061;27;103085;-62
2022/08/12 09:03:44;;;;;;;3.60;2.10;;;;;;;24.15;62.27;96473.00;5069291;27;101780;-62
2022/08/12 09:06:11;;;;;;;1.97;1.80;;;;;;;24.74;62.30;96474.31;5070720;27;102387;-62
2022/08/12 09:08:39;;;;;;;3.07;1.77;;;;;;;25.02;57.21;96466.28;5068440;27;105564;-62
2022/08/12 09:13:47;;;;;;;2.07;1.90;;;;;;;24.95;58.90;96466.06;5070873;27;102204;-62
2022/08/12 09:16:16;;;;;;;1.93;1.73;;;;;;;24.98;58.96;96468.91;5068498;27;105160;-62
2022/08/12 09:18:44;;;;;;;2.80;1.90;;;;;;;25.27;52.53;96459.72;5072147;27;102082;-62
2022/08/12 09:21:12;;;;;;;2.20;1.57;;;;;;;25.25;51.71;96459.28;5076913;27;102671;-62
2022/08/12 09:23:40;;;;;;;1.83;1.73;;;;;;;25.17;51.59;96466.41;5072410;27;102310;-62
2022/08/12 09:26:08;;;;;;;3.20;1.67;;;;;;;25.50;52.07;96458.13;5074137;27;102823;-62
2022/08/12 09:28:36;;;;;;;2.00;1.80;;;;;;;25.50;49.07;96458.13;5073346;27;102485;-62
2022/08/12 09:31:04;;;;;;;2.50;1.70;;;;;;;26.05;49.73;96459.00;5072483;27;101961;-62
2022/08/12 09:33:37;;;;;;;2.00;1.87;;;;;;;26.15;48.60;96457.72;5073795;27;102331;-62
2022/08/12 09:36:04;;;;;;;1.80;1.60;;;;;;;26.16;49.45;96454.63;5073203;27;102700;-62
2022/08/12 09:38:32;;;;;;;3.13;1.87;;;;;;;26.52;47.16;96453.63;5073827;27;101800;-62
2022/08/12 09:41:00;;;;;;;2.90;1.80;;;;;;;26.66;44.99;96459.50;5072106;27;104052;-62
2022/08/12 09:46:16;;;;;;;2.87;1.77;;;;;;;27.19;45.13;96458.91;5072353;27;103427;-62
2022/08/12 09:48:44;;;;;;;2.07;1.70;;;;;;;27.40;44.57;96446.53;5071387;27;104161;-62
2022/08/12 09:51:12;;;;;;;2.00;1.47;;;;;;;26.94;43.41;96449.28;5073709;27;101829;-62
2022/08/12 09:53:40;;;;;;;2.07;1.80;;;;;;;26.80;43.80;96448.97;5072179;27;105688;-62
2022/08/12 09:56:12;;;;;;;1.60;1.50;;;;;;;27.06;43.49;96454.66;5071483;27;105870;-62
2022/08/12 09:58:40;;;;;;;3.53;1.90;;;;;;;27.15;44.16;96447.09;5071902;27;101683;-62
2022/08/12 10:01:08;;;;;;;1.77;1.60;;;;;;;27.04;43.79;96449.56;5072059;27;105588;-62
2022/08/12 10:03:36;;;;;;;1.30;1.23;;;;;;;26.67;44.04;96442.78;5074768;27;105774;-62
2022/08/12 10:06:06;;;;;;;1.57;1.47;;;;;;;27.00;44.94;96443.22;5071989;27;104895;-62
2022/08/12 10:08:35;;;;;;;5.70;1.60;;;;;;;27.02;45.14;96437.41;5071265;27;107197;-62
2022/08/12 10:13:53;;;;;;;1.97;1.23;;;;;;;26.95;43.11;96426.31;5071798;27;105165;-62
2022/08/12 10:16:23;;;;;;;1.67;1.40;;;;;;;27.17;42.83;96426.50;5071229;27;105362;-62
2022/08/12 10:18:52;;;;;;;1.40;1.30;;;;;;;27.16;41.70;96424.09;5071783;27;101988;-62
2022/08/12 10:21:23;;;;;;;3.23;1.40;;;;;;;27.38;41.15;96423.44;5073136;27;102211;-62
2022/08/12 10:23:52;;;;;;;1.77;1.30;;;;;;;27.03;42.91;96430.81;5072198;27;102826;-62
2022/08/12 10:31:50;;;;;;;1.97;1.70;;;;;;;27.22;40.81;96420.78;5073251;27;101849;-62
2022/08/12 10:34:20;;;;;;;1.13;1.13;;;;;;;27.45;39.16;96418.13;5072859;27;102784;-62
2022/08/12 10:36:50;;;;;;;4.07;1.40;;;;;;;27.38;39.88;96423.44;5072099;27;102476;-62
2022/08/12 10:39:19;;;;;;;1.73;1.53;;;;;;;27.93;38.72;96428.56;5072450;27;101804;-62
2022/08/12 10:44:31;;;;;;;2.53;1.10;;;;;;;28.16;38.59;96421.25;5070372;27;105090;-62
2022/08/12 10:46:58;;;;;;;2.27;1.20;;;;;;;28.01;37.86;96414.69;5071357;27;101962;-62
2022/08/12 10:49:27;;;;;;;2.23;1.30;;;;;;;27.87;38.33;96411.69;5075424;27;102352;-62
2022/08/12 10:51:56;;;;;;;1.27;1.17;;;;;;;27.73;38.09;96418.78;5072761;27;102064;-62
2022/08/12 10:54:26;;;;;;;2.00;1.10;;;;;;;28.39;37.48;96411.16;5072308;27;102434;-62
2022/08/12 10:56:53;;;;;;;1.42;1.30;;;;;;;27.97;37.52;96407.56;5072107;27;102612;-62
2022/08/12 10:59:21;;;;;;;1.38;1.20;;;;;;;28.20;36.66;96403.75;5071115;27;101917;-62
2022/08/12 11:01:49;;;;;;;1.30;1.10;;;;;;;28.12;36.64;96409.44;5072489;27;101696;-62
2022/08/12 11:04:16;;;;;;;2.90;1.40;;;;;;;28.34;36.43;96405.94;5071509;27;102527;-62
2022/08/12 11:06:46;;;;;;;1.60;1.25;;;;;;;28.02;37.42;96404.53;5071004;27;101942;-62
2022/08/12 11:09:20;;;;;;;1.95;1.30;;;;;;;28.59;36.56;96399.78;5072223;27;102753;-62
2022/08/12 11:11:49;;;;;;;1.50;1.40;;;;;;;28.74;36.06;96390.66;5073367;27;106778;-62
2022/08/12 11:14:18;;;;;;;1.30;1.17;;;;;;;28.80;35.89;96388.38;5072331;27;103980;-62
2022/08/12 11:16:45;;;;;;;3.13;1.38;;;;;;;28.75;36.64;96388.69;5071519;27;104646;-62
2022/08/12 11:19:12;;;;;;;1.65;1.20;;;;;;;29.06;35.19;96382.97;5072211;27;101816;-62
2022/08/12 11:21:39;;;;;;;2.45;1.27;;;;;;;29.44;35.31;96383.53;5071955;27;102356;-62
2022/08/12 11:24:07;;;;;;;1.27;1.20;;;;;;;29.66;35.63;96379.16;5071397;27;102590;-62
2022/08/12 11:26:35;;;;;;;3.00;1.27;;;;;;;29.99;34.22;96382.69;5072337;27;102239;-62
2022/08/12 11:29:03;;;;;;;3.15;1.15;;;;;;;29.31;34.67;96373.19;5070217;27;105295;-62
2022/08/12 11:31:30;;;;;;;1.23;1.13;;;;;;;29.38;35.25;96376.00;5069846;27;105508;-62
2022/08/12 11:33:58;;;;;;;1.98;1.13;;;;;;;29.53;34.35;96370.34;5075394;27;101830;-62
2022/08/12 11:36:25;;;;;;;1.30;1.17;;;;;;;28.68;35.60;96363.94;5071488;27;102656;-62
2022/08/12 11:38:52;;;;;;;1.25;1.10;;;;;;;27.83;37.48;96364.34;5071526;27;101810;-63
2022/08/12 11:41:19;;;;;;;3.78;1.30;;;;;;;27.77;38.34;96354.03;5069066;27;103794;-62
2022/08/12 11:43:48;;;;;;;2.10;1.40;;;;;;;27.83;37.79;96360.81;5069862;27;103896;-62
2022/08/12 11:46:18;;;;;;;3.28;1.50;;;;;;;27.40;37.43;96355.63;5071856;27;101680;-62
2022/08/12 11:48:45;;;;;;;1.70;1.60;;;;;;;26.60;39.75;96362.69;5070315;27;104695;-62
2022/08/12 11:51:12;;;;;;;2.08;1.27;;;;;;;27.06;38.33;96353.66;5071123;27;103298;-62
2022/08/12 11:53:39;;;;;;;1.43;1.10;;;;;;;26.24;39.82;96346.56;5071377;27;102017;-62
2022/08/12 11:56:08;;;;;;;2.73;1.20;;;;;;;26.82;39.85;96356.59;5074655;27;102388;-62
2022/08/12 11:58:35;;;;;;;1.30;1.20;;;;;;;26.80;39.03;96353.47;5070101;27;102299;-62
2022/08/12 12:01:04;;;;;;;1.10;1.00;;;;;;;27.23;38.02;96351.34;5071472;27;102764;-62
2022/08/12 12:03:31;;;;;;;1.33;1.20;;;;;;;28.00;36.75;96346.72;5070786;27;102926;-62
2022/08/12 12:05:58;;;;;;;1.38;1.13;;;;;;;28.28;36.82;96349.97;5071726;27;102144;-62
2022/08/12 12:08:29;;;;;;;1.00;1.00;;;;;;;28.11;36.75;96353.94;5071410;27;102336;-62
2022/08/12 12:10:56;;;;;;;1.20;1.10;;;;;;;28.46;35.99;96353.81;5071065;27;102697;-62
2022/08/12 12:13:23;;;;;;;1.63;1.02;;;;;;;28.69;35.59;96343.63;5069976;27;101976;-62
2022/08/12 12:15:50;;;;;;;3.05;1.20;;;;;;;29.29;34.04;96345.34;5072680;27;104831;-62
2022/08/12 12:18:24;;;;;;;1.52;1.00;;;;;;;29.60;32.20;96342.25;5069835;27;101969;-62
2022/08/12 12:20:53;;;;;;;2.38;1.10;;;;;;;29.76;32.79;96337.38;5071403;27;102595;-62
2022/08/12 12:23:20;;;;;;;1.15;1.10;;;;;;;29.69;32.58;96340.03;5070601;27;102640;-62
2022/08/12 12:25:47;;;;;;;1.23;1.13;;;;;;;30.27;31.79;96341.06;5071185;27;101664;-62
2022/08/12 12:28:14;;;;;;;1.00;1.00;;;;;;;30.36;31.76;96333.31;5070935;27;102403;-62
2022/08/12 12:30:42;;;;;;;1.00;1.00;;;;;;;30.76;30.47;96341.53;5070497;27;102623;-62
2022/08/12 12:33:10;;;;;;;2.20;1.20;;;;;;;30.58;32.26;96340.59;5071024;27;101849;-62
2022/08/12 12:35:40;;;;;;;2.80;1.10;;;;;;;30.01;32.31;96332.94;5071000;27;102332;-62
2022/08/12 12:38:09;;;;;;;2.30;0.90;;;;;;;29.10;32.21;96331.78;5073762;27;102651;-62
2022/08/12 12:40:37;;;;;;;1.02;0.93;;;;;;;28.45;32.54;96333.09;5068776;27;105252;-62
2022/08/12 12:43:04;;;;;;;0.90;0.90;;;;;;;27.77;33.66;96335.69;5069980;27;102590;-62
2022/08/12 12:45:33;;;;;;;1.65;0.93;;;;;;;28.04;33.73;96342.06;5071116;27;102017;-62
2022/08/12 12:48:01;;;;;;;1.50;1.13;;;;;;;29.47;32.82;96338.16;5070663;27;102430;-62
2022/08/12 12:50:30;;;;;;;1.77;1.00;;;;;;;29.87;31.02;96335.53;5070140;27;102553;-62
2022/08/12 12:52:59;;;;;;;1.90;1.00;;;;;;;29.65;31.23;96323.53;5070673;27;102050;-62
2022/08/12 12:55:27;;;;;;;3.15;1.00;;;;;;;29.67;31.70;96326.69;5070838;27;102352;-62
2022/08/12 12:57:57;;;;;;;2.88;0.85;;;;;;;28.89;31.92;96320.50;5068673;27;105410;-62
2022/08/12 13:00:24;;;;;;;1.08;0.90;;;;;;;28.97;32.86;96324.94;5074303;27;101747;-62
2022/08/12 13:02:54;;;;;;;2.08;1.00;;;;;;;28.98;32.93;96324.56;5068511;27;105505;-62
2022/08/12 13:05:25;;;;;;;1.30;1.20;;;;;;;28.53;33.17;96315.59;5070903;27;101899;-62
2022/08/12 13:07:54;;;;;;;1.25;1.00;;;;;;;28.96;32.79;96324.16;5070868;27;102801;-62
2022/08/12 13:10:24;;;;;;;1.52;1.17;;;;;;;29.48;33.08;96323.28;5069724;27;102570;-62
2022/08/12 13:12:52;;;;;;;1.27;0.85;;;;;;;30.42;31.56;96320.84;5069133;27;101939;-62
2022/08/12 13:15:19;;;;;;;1.00;1.00;;;;;;;30.34;30.62;96322.72;5070668;27;101731;-62
2022/08/12 13:17:48;;;;;;;0.90;0.88;;;;;;;30.65;29.50;96318.66;5069730;27;104195;-62
2022/08/12 13:20:17;;;;;;;3.15;0.90;;;;;;;30.84;30.13;96324.72;5070569;27;101818;-62
2022/08/12 13:22:45;;;;;;;2.92;0.90;;;;;;;31.37;28.40;96319.59;5073114;27;102484;-62